createdAt,value
2022-10-02T00:00:02.698Z,13.40
2022-10-02T00:02:42.778Z,13.40
2022-10-02T00:05:15.841Z,13.40
2022-10-02T00:07:54.513Z,13.40
2022-10-02T00:10:36.286Z,13.40
2022-10-02T00:13:12.358Z,13.40
2022-10-02T00:15:42.406Z,13.30
2022-10-02T00:18:16.103Z,13.30
2022-10-02T00:20:58.115Z,13.20
2022-10-02T00:23:36.735Z,13.20
2022-10-02T00:26:07.593Z,13.10
2022-10-02T00:29:01.378Z,13.10
2022-10-02T00:31:41.775Z,13.00
2022-10-02T00:34:30.906Z,12.90
2022-10-02T00:37:19.771Z,12.90
2022-10-02T00:39:55.871Z,12.80
2022-10-02T00:42:44.177Z,12.70
2022-10-02T00:45:39.048Z,12.70
2022-10-02T00:48:27.264Z,12.60
2022-10-02T00:51:03.219Z,12.60
2022-10-02T00:53:33.049Z,12.50
2022-10-02T00:56:25.037Z,12.50
2022-10-02T00:59:13.739Z,12.40
2022-10-02T01:01:53.390Z,12.40
2022-10-02T01:04:40.631Z,12.30
2022-10-02T01:07:12.854Z,12.30
2022-10-02T01:09:41.971Z,12.30
2022-10-02T01:12:10.218Z,12.30
2022-10-02T01:14:39.993Z,12.30
2022-10-02T01:17:24.363Z,12.30
2022-10-02T01:19:51.995Z,12.30
2022-10-02T01:22:46.649Z,12.30
2022-10-02T01:25:16.481Z,12.40
2022-10-02T01:27:44.129Z,12.30
2022-10-02T01:30:15.687Z,12.30
2022-10-02T01:32:56.229Z,12.30
2022-10-02T01:35:27.960Z,12.30
2022-10-02T01:37:55.806Z,12.20
2022-10-02T01:40:29.627Z,12.20
2022-10-02T01:43:00.703Z,12.30
2022-10-02T01:45:56.444Z,12.40
2022-10-02T01:48:35.448Z,12.50
2022-10-02T01:51:46.772Z,12.60
2022-10-02T01:54:34.933Z,12.60
2022-10-02T01:57:20.156Z,12.70
2022-10-02T01:59:56.477Z,12.70
2022-10-02T02:02:33.968Z,12.70
2022-10-02T02:05:25.168Z,12.70
2022-10-02T02:08:08.300Z,12.70
2022-10-02T02:10:53.566Z,12.70
2022-10-02T02:13:34.505Z,12.80
2022-10-02T02:16:33.922Z,12.80
2022-10-02T02:19:04.303Z,12.80
2022-10-02T02:21:35.920Z,12.80
2022-10-02T02:24:10.203Z,12.80
2022-10-02T02:26:39.319Z,12.80
2022-10-02T02:29:08.831Z,12.80
2022-10-02T02:31:59.076Z,12.80
2022-10-02T02:34:33.778Z,12.90
2022-10-02T02:37:07.738Z,12.80
2022-10-02T02:39:52.773Z,12.80
2022-10-02T02:42:26.098Z,12.80
2022-10-02T02:45:14.271Z,12.80
2022-10-02T02:47:59.992Z,12.80
2022-10-02T02:50:29.958Z,12.80
2022-10-02T02:53:05.077Z,12.80
2022-10-02T02:55:42.766Z,12.80
2022-10-02T02:58:35.146Z,12.80
2022-10-02T03:01:02.714Z,12.80
2022-10-02T03:03:29.855Z,12.70
2022-10-02T03:06:03.437Z,12.70
2022-10-02T03:08:35.487Z,12.70
2022-10-02T03:11:25.281Z,12.60
2022-10-02T03:14:08.032Z,12.60
2022-10-02T03:16:58.498Z,12.60
2022-10-02T03:19:40.141Z,12.60
2022-10-02T03:22:30.448Z,12.50
2022-10-02T03:25:19.740Z,12.60
2022-10-02T03:27:53.233Z,12.50
2022-10-02T03:30:22.057Z,12.50
2022-10-02T03:32:56.414Z,12.50
2022-10-02T03:35:24.964Z,12.40
2022-10-02T03:37:59.063Z,12.40
2022-10-02T03:40:27.527Z,12.30
2022-10-02T03:42:58.463Z,12.30
2022-10-02T03:45:49.575Z,12.30
2022-10-02T03:48:15.040Z,12.30
2022-10-02T03:50:42.157Z,12.30
2022-10-02T03:53:25.103Z,12.30
2022-10-02T03:56:06.547Z,12.40
2022-10-02T03:58:34.580Z,12.40
2022-10-02T04:01:21.080Z,12.40
2022-10-02T04:03:52.757Z,12.50
2022-10-02T04:06:28.360Z,12.50
2022-10-02T04:09:04.856Z,12.50
2022-10-02T04:11:37.320Z,12.50
2022-10-02T04:14:09.734Z,12.50
2022-10-02T04:16:46.794Z,12.50
2022-10-02T04:19:33.707Z,12.40
2022-10-02T04:22:24.882Z,12.40
2022-10-02T04:25:00.429Z,12.50
2022-10-02T04:27:37.428Z,12.50
2022-10-02T04:30:08.188Z,12.50
2022-10-02T04:32:36.939Z,12.60
2022-10-02T04:35:14.741Z,12.60
2022-10-02T04:37:50.764Z,12.60
2022-10-02T04:40:43.772Z,12.50
2022-10-02T04:43:11.116Z,12.60
2022-10-02T04:45:55.861Z,12.50
2022-10-02T04:48:31.870Z,12.50
2022-10-02T04:51:25.636Z,12.60
2022-10-02T04:54:20.595Z,12.50
2022-10-02T04:57:05.706Z,12.50
2022-10-02T04:59:57.125Z,12.40
2022-10-02T05:02:36.081Z,12.40
2022-10-02T05:05:09.219Z,12.40
2022-10-02T05:08:03.658Z,12.40
2022-10-02T05:10:36.484Z,12.40
2022-10-02T05:13:12.535Z,12.30
2022-10-02T05:16:07.991Z,12.30
2022-10-02T05:18:50.400Z,12.30
2022-10-02T05:21:38.631Z,12.20
2022-10-02T05:24:21.433Z,12.20
2022-10-02T05:27:03.716Z,12.10
2022-10-02T05:30:12.965Z,12.10
2022-10-02T05:32:45.631Z,12.10
2022-10-02T05:35:26.985Z,12.10
2022-10-02T05:38:31.542Z,12.10
2022-10-02T05:41:18.272Z,12.10
2022-10-02T05:43:56.475Z,12.20
2022-10-02T05:46:30.151Z,12.20
2022-10-02T05:49:14.975Z,12.20
2022-10-02T05:52:01.795Z,12.20
2022-10-02T05:55:01.792Z,12.20
2022-10-02T05:58:10.283Z,12.20
2022-10-02T06:01:06.397Z,12.20
2022-10-02T06:03:45.727Z,12.20
2022-10-02T06:06:46.517Z,12.20
2022-10-02T06:09:31.836Z,12.30
2022-10-02T06:12:14.807Z,12.40
2022-10-02T06:14:59.313Z,12.50
2022-10-02T06:17:34.971Z,12.60
2022-10-02T06:20:05.027Z,12.70
2022-10-02T06:22:50.973Z,12.70
2022-10-02T06:25:28.649Z,12.80
2022-10-02T06:28:01.734Z,12.80
2022-10-02T06:30:33.024Z,12.80
2022-10-02T06:33:26.777Z,12.80
2022-10-02T06:35:54.139Z,12.90
2022-10-02T06:38:35.647Z,12.90
2022-10-02T06:41:45.756Z,12.90
2022-10-02T06:44:22.985Z,12.90
2022-10-02T06:47:08.436Z,12.90
2022-10-02T06:50:05.006Z,12.90
2022-10-02T06:52:53.631Z,13.00
2022-10-02T06:55:43.716Z,12.90
2022-10-02T06:58:26.968Z,13.00
2022-10-02T07:00:59.267Z,13.00
2022-10-02T07:04:04.355Z,13.00
2022-10-02T07:06:53.320Z,13.00
2022-10-02T07:09:45.154Z,13.00
2022-10-02T07:12:40.377Z,13.10
2022-10-02T07:15:32.612Z,13.20
2022-10-02T07:18:19.662Z,13.20
2022-10-02T07:21:08.025Z,13.30
2022-10-02T07:24:02.570Z,13.30
2022-10-02T07:26:43.215Z,13.40
2022-10-02T07:29:16.952Z,13.50
2022-10-02T07:32:17.690Z,13.50
2022-10-02T07:35:05.785Z,13.60
2022-10-02T07:37:50.576Z,13.70
2022-10-02T07:41:07.366Z,13.70
2022-10-02T07:44:04.248Z,13.80
2022-10-02T07:46:37.421Z,13.80
2022-10-02T07:49:24.553Z,13.80
2022-10-02T07:52:22.884Z,13.80
2022-10-02T07:55:05.045Z,13.90
2022-10-02T07:57:46.119Z,13.90
2022-10-02T08:00:24.162Z,13.90
2022-10-02T08:03:12.702Z,13.90
2022-10-02T08:05:49.672Z,14.00
2022-10-02T08:08:21.288Z,14.10
2022-10-02T08:10:56.528Z,14.10
2022-10-02T08:13:39.929Z,14.10
2022-10-02T08:16:09.286Z,14.10
2022-10-02T08:18:49.186Z,14.10
2022-10-02T08:21:23.185Z,14.20
2022-10-02T08:24:10.129Z,14.30
2022-10-02T08:26:46.393Z,14.40
2022-10-02T08:29:26.637Z,14.50
2022-10-02T08:31:54.564Z,14.50
2022-10-02T08:34:23.830Z,14.60
2022-10-02T08:37:00.524Z,14.70
2022-10-02T08:39:30.423Z,14.80
2022-10-02T08:42:33.364Z,14.70
2022-10-02T08:45:34.337Z,14.80
2022-10-02T08:48:26.800Z,14.80
2022-10-02T08:51:15.153Z,14.80
2022-10-02T08:54:00.753Z,14.80
2022-10-02T08:56:59.666Z,14.80
2022-10-02T08:59:42.483Z,14.90
2022-10-02T09:02:51.135Z,15.00
2022-10-02T09:05:45.331Z,15.10
2022-10-02T09:08:37.008Z,15.10
2022-10-02T09:11:37.400Z,15.20
2022-10-02T09:14:26.192Z,15.30
2022-10-02T09:17:13.813Z,15.30
2022-10-02T09:20:05.015Z,15.40
2022-10-02T09:22:50.902Z,15.50
2022-10-02T09:25:55.406Z,15.50
2022-10-02T09:28:34.956Z,15.50
2022-10-02T09:31:40.394Z,15.50
2022-10-02T09:34:26.598Z,15.60
2022-10-02T09:37:06.786Z,15.70
2022-10-02T09:39:51.744Z,15.80
2022-10-02T09:42:43.613Z,15.80
2022-10-02T09:45:37.963Z,15.90
2022-10-02T09:48:24.007Z,16.00
2022-10-02T09:51:28.763Z,16.00
2022-10-02T09:54:15.507Z,16.10
2022-10-02T09:57:19.884Z,16.30
2022-10-02T10:00:13.038Z,16.40
2022-10-02T10:02:49.359Z,16.40
2022-10-02T10:05:39.439Z,16.50
2022-10-02T10:08:22.426Z,16.50
2022-10-02T10:11:29.260Z,16.60
2022-10-02T10:14:24.741Z,16.70
2022-10-02T10:17:39.362Z,16.80
2022-10-02T10:20:23.082Z,16.90
2022-10-02T10:23:12.607Z,16.90
2022-10-02T10:26:15.342Z,16.90
2022-10-02T10:29:27.006Z,16.90
2022-10-02T10:31:56.989Z,16.90
2022-10-02T10:34:32.725Z,17.00
2022-10-02T10:37:29.421Z,17.10
2022-10-02T10:40:15.740Z,17.20
2022-10-02T10:43:06.984Z,17.30
2022-10-02T10:45:57.229Z,17.30
2022-10-02T10:48:27.695Z,17.30
2022-10-02T10:51:01.027Z,17.30
2022-10-02T10:53:51.668Z,17.20
2022-10-02T10:56:37.194Z,17.20
2022-10-02T10:59:32.442Z,17.20
2022-10-02T11:02:18.398Z,17.30
2022-10-02T11:05:07.744Z,17.20
2022-10-02T11:07:43.024Z,17.30
2022-10-02T11:10:38.472Z,17.20
2022-10-02T11:13:35.795Z,17.20
2022-10-02T11:16:06.688Z,17.20
2022-10-02T11:18:43.016Z,17.20
2022-10-02T11:21:29.096Z,17.30
2022-10-02T11:24:06.217Z,17.30
2022-10-02T11:26:54.929Z,17.20
2022-10-02T11:29:37.024Z,17.30
2022-10-02T11:32:23.254Z,17.50
2022-10-02T11:35:01.992Z,17.60
2022-10-02T11:37:31.805Z,17.70
2022-10-02T11:39:58.849Z,17.60
2022-10-02T11:42:56.717Z,17.70
2022-10-02T11:46:01.514Z,17.80
2022-10-02T11:49:00.053Z,17.80
2022-10-02T11:51:59.595Z,17.80
2022-10-02T11:54:56.471Z,17.80
2022-10-02T11:57:52.192Z,17.80
2022-10-02T12:00:55.636Z,17.80
2022-10-02T12:03:49.182Z,17.90
2022-10-02T12:06:54.131Z,17.90
2022-10-02T12:10:00.912Z,17.90
2022-10-02T12:13:07.429Z,17.80
2022-10-02T12:15:48.982Z,17.70
2022-10-02T12:18:39.500Z,17.60
2022-10-02T12:21:40.421Z,17.60
2022-10-02T12:24:35.341Z,17.50
2022-10-02T12:27:37.793Z,17.40
2022-10-02T12:30:36.271Z,17.20
2022-10-02T12:33:13.599Z,17.00
2022-10-02T12:36:16.193Z,17.00
2022-10-02T12:39:16.733Z,17.00
2022-10-02T12:42:06.643Z,17.10
2022-10-02T12:45:12.010Z,17.10
2022-10-02T12:48:10.891Z,17.20
2022-10-02T12:51:12.738Z,17.10
2022-10-02T12:54:14.731Z,17.10
2022-10-02T12:57:53.911Z,17.10
2022-10-02T13:00:43.520Z,17.10
2022-10-02T13:03:33.586Z,17.10
2022-10-02T13:06:18.763Z,17.20
2022-10-02T13:09:10.957Z,17.20
2022-10-02T13:11:38.390Z,17.20
2022-10-02T13:14:30.131Z,17.10
2022-10-02T13:17:09.834Z,17.20
2022-10-02T13:20:15.036Z,17.20
2022-10-02T13:23:09.466Z,17.30
2022-10-02T13:25:57.458Z,17.30
2022-10-02T13:28:48.539Z,17.40
2022-10-02T13:31:44.474Z,17.60
2022-10-02T13:34:34.116Z,17.80
2022-10-02T13:37:38.498Z,17.90
2022-10-02T13:40:42.615Z,18.00
2022-10-02T13:43:31.699Z,18.00
2022-10-02T13:53:08.539Z,17.40
2022-10-02T13:56:06.974Z,17.30
2022-10-02T13:58:36.863Z,17.20
2022-10-02T14:01:15.486Z,17.20
2022-10-02T14:04:01.067Z,17.30
2022-10-02T14:06:55.986Z,17.40
2022-10-02T14:09:59.836Z,17.70
2022-10-02T14:13:06.554Z,17.90
2022-10-02T14:16:02.515Z,18.20
2022-10-02T14:19:01.249Z,18.40
2022-10-02T14:21:38.839Z,18.60
2022-10-02T14:25:04.340Z,18.50
2022-10-02T14:27:50.448Z,18.40
2022-10-02T14:30:23.472Z,18.10
2022-10-02T14:33:02.439Z,18.00
2022-10-02T14:35:51.995Z,18.00
2022-10-02T14:38:22.193Z,17.90
2022-10-02T14:41:02.268Z,17.70
2022-10-02T14:43:38.360Z,17.60
2022-10-02T14:46:24.684Z,17.40
2022-10-02T14:49:00.776Z,17.40
2022-10-02T14:51:48.301Z,17.30
2022-10-02T14:54:34.640Z,17.30
2022-10-02T14:57:20.283Z,17.30
2022-10-02T14:59:56.352Z,17.20
2022-10-02T15:02:50.735Z,17.20
2022-10-02T15:05:45.511Z,17.20
2022-10-02T15:08:20.415Z,17.10
2022-10-02T15:10:49.498Z,17.10
2022-10-02T15:13:46.605Z,17.00
2022-10-02T15:16:45.858Z,17.10
2022-10-02T15:19:30.554Z,17.00
2022-10-02T15:22:03.372Z,16.90
2022-10-02T15:24:32.140Z,16.90
2022-10-02T15:27:14.763Z,16.80
2022-10-02T15:30:29.143Z,16.80
2022-10-02T15:33:01.821Z,16.80
2022-10-02T15:35:39.491Z,16.70
2022-10-02T15:38:39.831Z,16.70
2022-10-02T15:41:19.830Z,16.70
2022-10-02T15:44:25.978Z,16.70
2022-10-02T15:47:45.485Z,16.70
2022-10-02T15:50:34.698Z,16.60
2022-10-02T15:53:48.371Z,16.70
2022-10-02T15:56:28.122Z,16.60
2022-10-02T15:59:23.754Z,16.50
2022-10-02T16:02:03.933Z,16.50
2022-10-02T16:04:40.457Z,16.50
2022-10-02T16:07:32.968Z,16.40
2022-10-02T16:10:17.896Z,16.30
2022-10-02T16:13:24.672Z,16.30
2022-10-02T16:16:22.973Z,16.30
2022-10-02T16:19:16.081Z,16.20
2022-10-02T16:22:17.976Z,16.10
2022-10-02T16:25:13.222Z,16.10
2022-10-02T16:28:02.397Z,16.00
2022-10-02T16:30:56.304Z,16.00
2022-10-02T16:33:51.649Z,15.90
2022-10-02T16:36:31.928Z,15.80
2022-10-02T16:39:26.633Z,15.70
2022-10-02T16:42:02.552Z,15.70
2022-10-02T16:45:05.288Z,15.60
2022-10-02T16:48:07.822Z,15.60
2022-10-02T16:51:15.110Z,15.50
2022-10-02T16:53:51.861Z,15.40
2022-10-02T16:56:40.717Z,15.30
2022-10-02T16:59:17.597Z,15.30
2022-10-02T17:02:16.470Z,15.20
2022-10-02T17:05:04.492Z,15.10
2022-10-02T17:07:38.655Z,15.10
2022-10-02T17:10:33.836Z,15.00
2022-10-02T17:13:27.551Z,14.90
2022-10-02T17:15:59.144Z,14.90
2022-10-02T17:18:55.886Z,14.80
2022-10-02T17:21:29.551Z,14.70
2022-10-02T17:24:34.458Z,14.60
2022-10-02T17:27:12.011Z,14.60
2022-10-02T17:29:53.306Z,14.50
2022-10-02T17:32:48.537Z,14.40
2022-10-02T17:35:43.971Z,14.30
2022-10-02T17:38:37.435Z,14.30
2022-10-02T17:41:29.531Z,14.20
2022-10-02T17:44:26.705Z,14.10
2022-10-02T17:47:10.997Z,14.10
2022-10-02T17:49:59.842Z,14.00
2022-10-02T17:53:02.600Z,14.00
2022-10-02T17:56:20.003Z,14.00
2022-10-02T17:59:18.605Z,14.00
2022-10-02T18:02:24.363Z,13.90
2022-10-02T18:05:24.306Z,13.90
2022-10-02T18:08:12.841Z,13.90
2022-10-02T18:11:03.741Z,13.80
2022-10-02T18:13:49.793Z,13.80
2022-10-02T18:16:45.170Z,13.80
2022-10-02T18:19:24.069Z,13.70
2022-10-02T18:22:16.300Z,13.70
2022-10-02T18:25:12.470Z,13.70
2022-10-02T18:28:21.628Z,13.60
2022-10-02T18:30:54.891Z,13.60
2022-10-02T18:34:06.977Z,13.60
2022-10-02T18:37:01.254Z,13.50
2022-10-02T18:39:51.796Z,13.50
2022-10-02T18:42:51.323Z,13.50
2022-10-02T18:45:42.852Z,13.40
2022-10-02T18:48:31.589Z,13.30
2022-10-02T18:51:17.657Z,13.30
2022-10-02T18:53:53.968Z,13.30
2022-10-02T18:56:56.160Z,13.20
2022-10-02T19:00:00.531Z,13.20
2022-10-02T19:02:40.664Z,13.10
2022-10-02T19:05:41.826Z,13.10
2022-10-02T19:08:29.303Z,13.00
2022-10-02T19:10:56.920Z,13.00
2022-10-02T19:13:29.091Z,12.90
2022-10-02T19:16:01.867Z,12.90
2022-10-02T19:18:31.172Z,12.80
2022-10-02T19:21:06.834Z,12.80
2022-10-02T19:24:15.128Z,12.80
2022-10-02T19:26:52.006Z,12.80
2022-10-02T19:29:42.083Z,12.70
2022-10-02T19:32:19.187Z,12.70
2022-10-02T19:34:52.105Z,12.70
2022-10-02T19:37:19.647Z,12.70
2022-10-02T19:39:56.287Z,12.60
2022-10-02T19:42:28.869Z,12.60
2022-10-02T19:45:03.302Z,12.50
2022-10-02T19:47:49.631Z,12.50
2022-10-02T19:50:23.357Z,12.50
2022-10-02T19:53:06.777Z,12.50
2022-10-02T19:55:38.939Z,12.40
2022-10-02T19:58:44.543Z,12.40
2022-10-02T20:01:25.432Z,12.40
2022-10-02T20:03:58.402Z,12.30
2022-10-02T20:06:32.031Z,12.30
2022-10-02T20:09:15.079Z,12.30
2022-10-02T20:12:01.630Z,12.30
2022-10-02T20:14:57.490Z,12.20
2022-10-02T20:17:25.052Z,12.20
2022-10-02T20:20:02.764Z,12.20
2022-10-02T20:23:04.342Z,12.20
2022-10-02T20:25:42.322Z,12.20
2022-10-02T20:28:41.639Z,12.10
2022-10-02T20:31:19.360Z,12.10
2022-10-02T20:33:58.129Z,12.00
2022-10-02T20:36:33.069Z,12.00
2022-10-02T20:39:09.924Z,12.00
2022-10-02T20:41:52.343Z,11.90
2022-10-02T20:44:20.838Z,12.00
2022-10-02T20:47:06.266Z,11.90
2022-10-02T20:50:12.516Z,11.90
2022-10-02T20:53:07.207Z,11.90
2022-10-02T20:55:53.817Z,11.90
2022-10-02T20:58:55.027Z,11.90
2022-10-02T21:01:55.819Z,11.90
2022-10-02T21:04:26.553Z,11.90
2022-10-02T21:07:35.233Z,11.90
2022-10-02T21:10:23.248Z,11.80
2022-10-02T21:13:08.428Z,11.90
2022-10-02T21:16:07.694Z,11.80
2022-10-02T21:18:39.582Z,11.80
2022-10-02T21:21:25.349Z,11.80
2022-10-02T21:24:43.413Z,11.80
2022-10-02T21:27:32.012Z,11.80
2022-10-02T21:30:11.985Z,11.70
2022-10-02T21:33:24.748Z,11.70
2022-10-02T21:36:31.408Z,11.70
2022-10-02T21:38:58.358Z,11.70
2022-10-02T21:41:58.193Z,11.70
2022-10-02T21:44:59.239Z,11.70
2022-10-02T21:48:06.845Z,11.60
2022-10-02T21:50:40.283Z,11.60
2022-10-02T21:53:51.191Z,11.50
2022-10-02T21:56:38.721Z,11.50
2022-10-02T21:59:29.825Z,11.50
2022-10-02T22:02:28.245Z,11.40
2022-10-02T22:05:01.396Z,11.30
2022-10-02T22:07:39.960Z,11.30
2022-10-02T22:10:27.597Z,11.20
2022-10-02T22:13:15.401Z,11.20
2022-10-02T22:16:23.323Z,11.20
2022-10-02T22:19:08.507Z,11.10
2022-10-02T22:21:49.948Z,11.10
2022-10-02T22:24:35.521Z,11.10
2022-10-02T22:27:45.512Z,11.10
2022-10-02T22:30:50.975Z,11.10
2022-10-02T22:33:40.467Z,11.10
2022-10-02T22:36:32.171Z,11.00
2022-10-02T22:39:31.490Z,11.00
2022-10-02T22:42:26.753Z,11.00
2022-10-02T22:44:59.962Z,11.00
2022-10-02T22:47:30.319Z,10.90
2022-10-02T22:50:13.373Z,10.90
2022-10-02T22:52:59.662Z,10.90
2022-10-02T22:55:34.307Z,10.80
2022-10-02T22:58:12.458Z,10.80
2022-10-02T23:01:04.484Z,10.70
2022-10-02T23:03:47.982Z,10.70
2022-10-02T23:06:22.954Z,10.70
2022-10-02T23:08:58.660Z,10.70
2022-10-02T23:11:32.580Z,10.70
2022-10-02T23:14:07.313Z,10.70
2022-10-02T23:16:49.140Z,10.70
2022-10-02T23:19:32.712Z,10.70
2022-10-02T23:22:05.255Z,10.60
2022-10-02T23:24:36.032Z,10.60
2022-10-02T23:27:03.269Z,10.50
2022-10-02T23:29:52.226Z,10.50
2022-10-02T23:32:28.101Z,10.50
2022-10-02T23:35:14.596Z,10.50
2022-10-02T23:38:00.479Z,10.50
2022-10-02T23:40:52.812Z,10.50
2022-10-02T23:43:28.433Z,10.40
2022-10-02T23:46:10.994Z,10.40
2022-10-02T23:48:39.297Z,10.30
2022-10-02T23:51:28.112Z,10.30
2022-10-02T23:54:19.950Z,10.30
2022-10-02T23:56:50.000Z,10.30
2022-10-02T23:59:38.398Z,10.30
